createdAt,value
2017-12-01T00:00:40.640Z,2.54
2017-12-01T00:01:40.610Z,2.50
2017-12-01T00:02:40.586Z,2.54
2017-12-01T00:03:40.559Z,2.50
2017-12-01T00:04:40.535Z,2.54
2017-12-01T00:05:40.508Z,2.54
2017-12-01T00:06:40.483Z,2.60
2017-12-01T00:07:40.458Z,2.53
2017-12-01T00:08:40.432Z,2.50
2017-12-01T00:09:40.406Z,2.57
2017-12-01T00:10:40.381Z,2.54
2017-12-01T00:11:40.353Z,2.54
2017-12-01T00:12:40.329Z,2.60
2017-12-01T00:13:40.302Z,2.61
2017-12-01T00:14:40.276Z,2.60
2017-12-01T00:15:40.251Z,2.56
2017-12-01T00:16:40.224Z,2.62
2017-12-01T00:17:40.198Z,2.51
2017-12-01T00:18:40.177Z,2.60
2017-12-01T00:19:40.149Z,2.61
2017-12-01T00:20:40.122Z,2.60
2017-12-01T00:21:40.095Z,2.65
2017-12-01T00:22:40.071Z,2.69
2017-12-01T00:23:40.044Z,2.61
2017-12-01T00:24:40.017Z,2.67
2017-12-01T00:25:39.991Z,2.68
2017-12-01T00:26:39.967Z,2.72
2017-12-01T00:27:39.942Z,2.72
2017-12-01T00:28:39.914Z,2.69
2017-12-01T00:29:39.889Z,2.69
2017-12-01T00:30:39.862Z,2.71
2017-12-01T00:31:39.837Z,2.71
2017-12-01T00:32:39.812Z,2.74
2017-12-01T00:33:39.787Z,2.71
2017-12-01T00:34:39.760Z,2.74
2017-12-01T00:35:39.736Z,2.71
2017-12-01T00:36:39.709Z,2.74
2017-12-01T00:37:39.683Z,2.72
2017-12-01T00:38:39.658Z,2.72
2017-12-01T00:39:39.630Z,2.71
2017-12-01T00:40:39.605Z,2.68
2017-12-01T00:41:39.581Z,2.68
2017-12-01T00:42:39.555Z,2.69
2017-12-01T00:43:39.529Z,2.75
2017-12-01T00:44:39.505Z,2.74
2017-12-01T00:45:39.476Z,2.68
2017-12-01T00:46:39.451Z,2.75
2017-12-01T00:47:39.425Z,2.74
2017-12-01T00:48:39.400Z,2.74
2017-12-01T00:49:39.374Z,2.79
2017-12-01T00:50:39.350Z,2.69
2017-12-01T00:51:39.322Z,2.72
2017-12-01T00:52:39.297Z,2.71
2017-12-01T00:53:39.271Z,2.69
2017-12-01T00:54:39.244Z,2.71
2017-12-01T00:55:39.219Z,2.69
2017-12-01T00:56:39.194Z,2.62
2017-12-01T00:57:39.164Z,2.62
2017-12-01T00:58:39.144Z,2.64
2017-12-01T00:59:39.116Z,2.65
2017-12-01T01:00:39.091Z,2.67
2017-12-01T01:01:39.065Z,2.61
2017-12-01T01:02:39.040Z,2.51
2017-12-01T01:03:39.016Z,2.57
2017-12-01T01:04:38.987Z,2.67
2017-12-01T01:05:38.965Z,2.67
2017-12-01T01:06:38.934Z,2.67
2017-12-01T01:07:38.910Z,2.65
2017-12-01T01:08:38.885Z,2.65
2017-12-01T01:09:38.860Z,2.60
2017-12-01T01:10:38.833Z,2.65
2017-12-01T01:11:38.806Z,2.64
2017-12-01T01:12:38.780Z,2.64
2017-12-01T01:13:38.754Z,2.61
2017-12-01T01:14:38.728Z,2.57
2017-12-01T01:15:38.704Z,2.56
2017-12-01T01:16:38.677Z,2.56
2017-12-01T01:17:38.650Z,2.61
2017-12-01T01:18:38.625Z,2.53
2017-12-01T01:19:38.599Z,2.49
2017-12-01T01:20:38.573Z,2.54
2017-12-01T01:21:38.548Z,2.51
2017-12-01T01:22:38.519Z,2.54
2017-12-01T01:23:38.496Z,2.53
2017-12-01T01:24:38.469Z,2.47
2017-12-01T01:25:38.443Z,2.50
2017-12-01T01:26:38.417Z,2.50
2017-12-01T01:27:38.396Z,2.53
2017-12-01T01:28:38.366Z,2.51
2017-12-01T01:29:38.340Z,2.47
2017-12-01T01:30:38.312Z,2.46
2017-12-01T01:31:38.291Z,2.53
2017-12-01T01:32:38.262Z,2.44
2017-12-01T01:33:38.235Z,2.54
2017-12-01T01:34:38.212Z,2.53
2017-12-01T01:35:38.184Z,2.47
2017-12-01T01:36:38.158Z,2.49
2017-12-01T01:37:38.131Z,2.47
2017-12-01T01:38:38.105Z,2.49
2017-12-01T01:39:38.081Z,2.46
2017-12-01T01:40:38.058Z,2.50
2017-12-01T01:41:38.028Z,2.33
2017-12-01T01:42:38.002Z,2.36
2017-12-01T01:43:37.982Z,2.36
2017-12-01T01:44:37.983Z,2.36
2017-12-01T01:45:37.958Z,2.35
2017-12-01T01:46:37.913Z,2.47
2017-12-01T01:47:37.920Z,2.42
2017-12-01T01:48:37.847Z,2.44
2017-12-01T01:49:37.819Z,2.47
2017-12-01T01:50:37.795Z,2.46
2017-12-01T01:51:37.768Z,2.42
2017-12-01T01:52:37.754Z,2.35
2017-12-01T01:53:37.728Z,2.28
2017-12-01T01:54:37.690Z,2.46
2017-12-01T01:55:37.683Z,2.32
2017-12-01T01:56:37.640Z,2.38
2017-12-01T01:57:37.613Z,2.43
2017-12-01T01:58:37.586Z,2.46
2017-12-01T01:59:37.563Z,2.33
2017-12-01T02:00:37.535Z,2.42
2017-12-01T02:01:37.509Z,2.35
2017-12-01T02:02:37.483Z,2.42
2017-12-01T02:03:37.458Z,2.35
2017-12-01T02:04:37.432Z,2.32
2017-12-01T02:05:37.405Z,2.46
2017-12-01T02:06:37.380Z,2.29
2017-12-01T02:07:37.354Z,2.33
2017-12-01T02:08:37.326Z,2.29
2017-12-01T02:09:37.301Z,2.33
2017-12-01T02:10:37.276Z,2.43
2017-12-01T02:11:37.252Z,2.39
2017-12-01T02:12:37.225Z,2.32
2017-12-01T02:13:37.198Z,2.33
2017-12-01T02:14:37.172Z,2.44
2017-12-01T02:15:37.148Z,2.44
2017-12-01T02:16:37.120Z,2.36
2017-12-01T02:17:37.093Z,2.31
2017-12-01T02:18:37.068Z,2.36
2017-12-01T02:19:37.043Z,2.33
2017-12-01T02:20:37.017Z,2.43
2017-12-01T02:21:36.989Z,2.35
2017-12-01T02:22:36.964Z,2.29
2017-12-01T02:23:36.938Z,2.35
2017-12-01T02:24:36.913Z,2.35
2017-12-01T02:25:36.887Z,2.44
2017-12-01T02:26:36.860Z,2.31
2017-12-01T02:27:36.836Z,2.33
2017-12-01T02:28:36.825Z,2.36
2017-12-01T02:29:36.783Z,2.38
2017-12-01T02:30:36.757Z,2.32
2017-12-01T02:31:36.731Z,2.46
2017-12-01T02:32:36.706Z,2.42
2017-12-01T02:33:36.678Z,2.49
2017-12-01T02:34:36.652Z,2.36
2017-12-01T02:35:36.627Z,2.42
2017-12-01T02:36:36.602Z,2.36
2017-12-01T02:37:36.573Z,2.44
2017-12-01T02:38:36.549Z,2.31
2017-12-01T02:39:36.524Z,2.43
2017-12-01T02:40:36.497Z,2.39
2017-12-01T02:41:36.469Z,2.43
2017-12-01T02:42:36.442Z,2.44
2017-12-01T02:43:36.470Z,2.36
2017-12-01T02:44:36.393Z,2.42
2017-12-01T02:45:36.367Z,2.46
2017-12-01T02:46:36.348Z,2.44
2017-12-01T02:47:36.317Z,2.47
2017-12-01T02:48:36.288Z,2.42
2017-12-01T02:49:36.262Z,2.47
2017-12-01T02:50:36.235Z,2.43
2017-12-01T02:51:36.210Z,2.44
2017-12-01T02:52:36.185Z,2.42
2017-12-01T02:53:36.158Z,2.33
2017-12-01T02:54:36.133Z,2.33
2017-12-01T02:55:36.108Z,2.39
2017-12-01T02:56:36.090Z,2.36
2017-12-01T02:57:36.053Z,2.32
2017-12-01T02:58:36.026Z,2.35
2017-12-01T02:59:36.004Z,2.32
2017-12-01T03:00:35.977Z,2.38
2017-12-01T03:01:35.949Z,2.33
2017-12-01T03:02:35.924Z,2.35
2017-12-01T03:03:35.900Z,2.32
2017-12-01T03:04:35.872Z,2.36
2017-12-01T03:05:35.845Z,2.28
2017-12-01T03:06:35.821Z,2.32
2017-12-01T03:07:35.795Z,2.29
2017-12-01T03:08:35.768Z,2.33
2017-12-01T03:09:35.748Z,2.36
2017-12-01T03:10:35.714Z,2.39
2017-12-01T03:11:35.689Z,2.28
2017-12-01T03:12:35.662Z,2.39
2017-12-01T03:13:35.637Z,2.35
2017-12-01T03:14:35.608Z,2.26
2017-12-01T03:15:35.589Z,2.33
2017-12-01T03:16:35.560Z,2.25
2017-12-01T03:17:35.533Z,2.29
2017-12-01T03:18:35.505Z,2.24
2017-12-01T03:19:35.484Z,2.26
2017-12-01T03:20:35.456Z,2.26
2017-12-01T03:21:35.429Z,2.22
2017-12-01T03:22:35.403Z,2.31
2017-12-01T03:23:35.378Z,2.31
2017-12-01T03:24:35.352Z,2.25
2017-12-01T03:25:35.325Z,2.32
2017-12-01T03:26:35.299Z,2.26
2017-12-01T03:27:35.272Z,2.14
2017-12-01T03:28:35.247Z,2.28
2017-12-01T03:29:35.220Z,2.28
2017-12-01T03:30:35.193Z,2.26
2017-12-01T03:31:35.172Z,2.26
2017-12-01T03:32:35.142Z,2.24
2017-12-01T03:33:35.116Z,2.20
2017-12-01T03:34:35.089Z,2.24
2017-12-01T03:35:35.064Z,2.26
2017-12-01T03:36:35.040Z,2.25
2017-12-01T03:37:35.011Z,2.18
2017-12-01T03:38:34.994Z,2.31
2017-12-01T03:39:34.962Z,2.18
2017-12-01T03:40:34.934Z,2.32
2017-12-01T03:41:34.906Z,2.22
2017-12-01T03:42:34.881Z,2.29
2017-12-01T03:43:34.855Z,2.22
2017-12-01T03:44:34.830Z,2.24
2017-12-01T03:45:34.803Z,2.32
2017-12-01T03:46:34.776Z,2.29
2017-12-01T03:47:34.755Z,2.28
2017-12-01T03:48:34.726Z,2.31
2017-12-01T03:49:34.700Z,2.31
2017-12-01T03:50:34.672Z,2.33
2017-12-01T03:51:34.648Z,2.29
2017-12-01T03:52:34.622Z,2.31
2017-12-01T03:53:34.595Z,2.25
2017-12-01T03:54:34.569Z,2.18
2017-12-01T03:55:34.547Z,2.25
2017-12-01T03:56:34.517Z,2.29
2017-12-01T03:57:34.490Z,2.26
2017-12-01T03:58:34.464Z,2.22
2017-12-01T03:59:34.440Z,2.20
2017-12-01T04:00:34.413Z,2.15
2017-12-01T04:01:34.385Z,2.18
2017-12-01T04:02:34.360Z,2.22
2017-12-01T04:03:34.334Z,2.14
2017-12-01T04:04:34.309Z,2.17
2017-12-01T04:05:34.283Z,2.15
2017-12-01T04:06:34.256Z,2.15
2017-12-01T04:07:34.230Z,2.18
2017-12-01T04:08:34.204Z,2.22
2017-12-01T04:09:34.177Z,2.15
2017-12-01T04:10:34.152Z,2.18
2017-12-01T04:11:34.129Z,2.17
2017-12-01T04:12:34.098Z,2.17
2017-12-01T04:13:34.072Z,2.11
2017-12-01T04:14:34.047Z,2.08
2017-12-01T04:15:34.021Z,2.13
2017-12-01T04:16:33.997Z,2.18
2017-12-01T04:17:33.969Z,2.08
2017-12-01T04:18:33.943Z,2.14
2017-12-01T04:19:33.918Z,2.20
2017-12-01T04:20:33.892Z,2.15
2017-12-01T04:21:33.865Z,2.14
2017-12-01T04:22:33.839Z,2.20
2017-12-01T04:23:33.812Z,2.17
2017-12-01T04:24:33.786Z,2.18
2017-12-01T04:25:33.761Z,2.14
2017-12-01T04:26:33.734Z,2.15
2017-12-01T04:27:33.709Z,2.24
2017-12-01T04:28:33.686Z,2.28
2017-12-01T04:29:33.657Z,2.15
2017-12-01T04:30:33.630Z,2.28
2017-12-01T04:31:33.604Z,2.31
2017-12-01T04:32:33.579Z,2.24
2017-12-01T04:33:33.552Z,2.31
2017-12-01T04:34:33.526Z,2.31
2017-12-01T04:35:33.499Z,2.31
2017-12-01T04:36:33.474Z,2.29
2017-12-01T04:37:33.447Z,2.31
2017-12-01T04:38:33.423Z,2.14
2017-12-01T04:39:33.395Z,2.25
2017-12-01T04:40:33.370Z,2.22
2017-12-01T04:41:33.342Z,2.25
2017-12-01T04:42:33.317Z,2.29
2017-12-01T04:43:33.291Z,2.39
2017-12-01T04:44:33.282Z,2.33
2017-12-01T04:45:33.239Z,2.39
2017-12-01T04:46:33.212Z,2.28
2017-12-01T04:47:33.187Z,2.36
2017-12-01T04:48:33.160Z,2.46
2017-12-01T04:49:33.134Z,2.35
2017-12-01T04:50:33.108Z,2.32
2017-12-01T04:51:33.082Z,2.35
2017-12-01T04:52:33.056Z,2.47
2017-12-01T04:53:33.028Z,2.38
2017-12-01T04:54:33.006Z,2.47
2017-12-01T04:55:32.979Z,2.42
2017-12-01T04:56:32.953Z,2.38
2017-12-01T04:57:32.928Z,2.49
2017-12-01T04:58:32.902Z,2.44
2017-12-01T04:59:32.875Z,2.47
2017-12-01T05:00:32.849Z,2.44
2017-12-01T05:01:32.823Z,2.43
2017-12-01T05:02:32.796Z,2.46
2017-12-01T05:03:32.771Z,2.44
2017-12-01T05:04:32.745Z,2.44
2017-12-01T05:05:32.716Z,2.47
2017-12-01T05:06:32.692Z,2.47
2017-12-01T05:07:32.667Z,2.42
2017-12-01T05:08:32.641Z,2.44
2017-12-01T05:09:32.613Z,2.60
2017-12-01T05:10:32.590Z,2.51
2017-12-01T05:11:32.562Z,2.57
2017-12-01T05:12:32.536Z,2.53
2017-12-01T05:13:32.510Z,2.61
2017-12-01T05:14:32.486Z,2.61
2017-12-01T05:15:32.458Z,2.61
2017-12-01T05:16:32.433Z,2.62
2017-12-01T05:17:32.406Z,2.60
2017-12-01T05:18:32.380Z,2.64
2017-12-01T05:19:32.354Z,2.64
2017-12-01T05:20:32.329Z,2.62
2017-12-01T05:21:32.303Z,2.60
2017-12-01T05:22:32.277Z,2.64
2017-12-01T05:23:32.251Z,2.64
2017-12-01T05:24:32.226Z,2.67
2017-12-01T05:25:32.197Z,2.60
2017-12-01T05:26:32.173Z,2.62
2017-12-01T05:27:32.148Z,2.51
2017-12-01T05:28:32.122Z,2.67
2017-12-01T05:29:32.095Z,2.61
2017-12-01T05:30:32.076Z,2.62
2017-12-01T05:31:32.045Z,2.62
2017-12-01T05:32:32.018Z,2.64
2017-12-01T05:33:31.991Z,2.64
2017-12-01T05:34:31.966Z,2.57
2017-12-01T05:35:31.942Z,2.67
2017-12-01T05:36:31.915Z,2.56
2017-12-01T05:37:31.893Z,2.56
2017-12-01T05:38:31.862Z,2.51
2017-12-01T05:39:31.837Z,2.56
2017-12-01T05:40:31.811Z,2.56
2017-12-01T05:41:31.784Z,2.56
2017-12-01T05:42:31.762Z,2.62
2017-12-01T05:43:31.735Z,2.61
2017-12-01T05:44:31.707Z,2.57
2017-12-01T05:45:31.682Z,2.51
2017-12-01T05:46:31.655Z,2.71
2017-12-01T05:47:31.630Z,2.61
2017-12-01T05:48:31.605Z,2.62
2017-12-01T05:49:31.578Z,2.69
2017-12-01T05:50:31.553Z,2.65
2017-12-01T05:51:31.527Z,2.62
2017-12-01T05:52:31.499Z,2.62
2017-12-01T05:53:31.473Z,2.67
2017-12-01T05:54:31.446Z,2.60
2017-12-01T05:55:31.421Z,2.64
2017-12-01T05:56:31.396Z,2.65
2017-12-01T05:57:31.371Z,2.67
2017-12-01T05:58:31.342Z,2.61
2017-12-01T05:59:31.317Z,2.65
2017-12-01T06:00:31.292Z,2.64
2017-12-01T06:01:31.265Z,2.67
2017-12-01T06:02:31.239Z,2.68
2017-12-01T06:03:31.217Z,2.57
2017-12-01T06:04:31.188Z,2.71
2017-12-01T06:05:31.163Z,2.74
2017-12-01T06:06:31.136Z,2.68
2017-12-01T06:07:31.110Z,2.71
2017-12-01T06:08:31.084Z,2.68
2017-12-01T06:09:31.058Z,2.67
2017-12-01T06:10:31.031Z,2.69
2017-12-01T06:11:31.007Z,2.75
2017-12-01T06:12:30.981Z,2.71
2017-12-01T06:13:30.953Z,2.71
2017-12-01T06:14:30.926Z,2.75
2017-12-01T06:15:30.906Z,2.71
2017-12-01T06:16:30.876Z,2.74
2017-12-01T06:17:30.851Z,2.71
2017-12-01T06:18:30.824Z,2.67
2017-12-01T06:19:30.800Z,2.68
2017-12-01T06:20:30.774Z,2.65
2017-12-01T06:21:30.747Z,2.67
2017-12-01T06:22:30.720Z,2.67
2017-12-01T06:23:30.694Z,2.57
2017-12-01T06:24:30.669Z,2.61
2017-12-01T06:25:30.646Z,2.65
2017-12-01T06:26:30.615Z,2.56
2017-12-01T06:27:30.590Z,2.60
2017-12-01T06:28:30.564Z,2.60
2017-12-01T06:29:30.538Z,2.54
2017-12-01T06:30:30.513Z,2.56
2017-12-01T06:31:30.488Z,2.53
2017-12-01T06:32:30.460Z,2.47
2017-12-01T06:33:30.434Z,2.46
2017-12-01T06:34:30.408Z,2.42
2017-12-01T06:35:30.383Z,2.43
2017-12-01T06:36:30.383Z,2.32
2017-12-01T06:37:30.330Z,2.33
2017-12-01T06:38:30.304Z,2.29
2017-12-01T06:39:30.279Z,2.33
2017-12-01T06:40:30.255Z,2.29
2017-12-01T06:41:30.226Z,2.35
2017-12-01T06:42:30.199Z,2.29
2017-12-01T06:43:30.173Z,2.26
2017-12-01T06:44:30.148Z,2.25
2017-12-01T06:45:30.121Z,2.29
2017-12-01T06:46:30.094Z,2.26
2017-12-01T06:47:30.070Z,2.24
2017-12-01T06:48:30.042Z,2.22
2017-12-01T06:49:30.017Z,2.32
2017-12-01T06:50:29.991Z,2.28
2017-12-01T06:51:29.983Z,2.28
2017-12-01T06:52:29.938Z,2.25
2017-12-01T06:53:29.911Z,2.24
2017-12-01T06:54:29.886Z,2.22
2017-12-01T06:55:29.859Z,2.32
2017-12-01T06:56:29.833Z,2.24
2017-12-01T06:57:29.807Z,2.32
2017-12-01T06:58:29.781Z,2.28
2017-12-01T06:59:29.755Z,2.24
2017-12-01T07:00:29.729Z,2.33
2017-12-01T07:01:29.743Z,2.31
2017-12-01T07:02:29.677Z,2.31
2017-12-01T07:03:29.651Z,2.31
2017-12-01T07:04:29.625Z,2.28
2017-12-01T07:05:29.598Z,2.33
2017-12-01T07:06:29.572Z,2.31
2017-12-01T07:07:29.547Z,2.28
2017-12-01T07:08:29.519Z,2.28
2017-12-01T07:09:29.495Z,2.24
2017-12-01T07:10:29.471Z,2.36
2017-12-01T07:11:29.440Z,2.28
2017-12-01T07:12:29.416Z,2.28
2017-12-01T07:13:29.389Z,2.26
2017-12-01T07:14:29.361Z,2.29
2017-12-01T07:15:29.336Z,2.25
2017-12-01T07:16:29.311Z,2.33
2017-12-01T07:17:29.283Z,2.35
2017-12-01T07:18:29.260Z,2.29
2017-12-01T07:19:29.236Z,2.39
2017-12-01T07:20:29.206Z,2.33
2017-12-01T07:21:29.177Z,2.32
2017-12-01T07:22:29.153Z,2.32
2017-12-01T07:23:29.130Z,2.31
2017-12-01T07:24:29.101Z,2.33
2017-12-01T07:25:29.074Z,2.33
2017-12-01T07:26:29.050Z,2.35
2017-12-01T07:27:29.027Z,2.46
2017-12-01T07:28:28.996Z,2.36
2017-12-01T07:29:28.970Z,2.42
2017-12-01T07:30:28.944Z,2.47
2017-12-01T07:31:28.916Z,2.46
2017-12-01T07:32:28.891Z,2.44
2017-12-01T07:33:28.864Z,2.47
2017-12-01T07:34:28.841Z,2.46
2017-12-01T07:35:28.811Z,2.51
2017-12-01T07:36:28.787Z,2.43
2017-12-01T07:37:28.759Z,2.50
2017-12-01T07:38:28.733Z,2.51
2017-12-01T07:39:28.707Z,2.47
2017-12-01T07:40:28.681Z,2.53
2017-12-01T07:41:28.657Z,2.56
2017-12-01T07:42:28.629Z,2.44
2017-12-01T07:43:28.602Z,2.50
2017-12-01T07:44:28.576Z,2.53
2017-12-01T07:45:28.551Z,2.44
2017-12-01T07:46:28.524Z,2.56
2017-12-01T07:47:28.499Z,2.61
2017-12-01T07:48:28.472Z,2.53
2017-12-01T07:49:28.446Z,2.49
2017-12-01T07:50:28.425Z,2.51
2017-12-01T07:51:28.395Z,2.71
2017-12-01T07:52:28.367Z,2.67
2017-12-01T07:53:28.343Z,2.67
2017-12-01T07:54:28.314Z,2.57
2017-12-01T07:55:28.289Z,2.62
2017-12-01T07:56:28.261Z,2.72
2017-12-01T07:57:28.237Z,2.67
2017-12-01T07:58:28.211Z,2.64
2017-12-01T07:59:28.185Z,2.69
2017-12-01T08:00:28.159Z,2.72
2017-12-01T08:01:28.163Z,2.74
2017-12-01T08:02:28.105Z,2.82
2017-12-01T08:03:28.080Z,2.79
2017-12-01T08:04:28.059Z,2.82
2017-12-01T08:05:28.032Z,2.89
2017-12-01T08:06:28.002Z,2.83
2017-12-01T08:07:27.978Z,2.85
2017-12-01T08:08:27.951Z,2.86
2017-12-01T08:09:27.927Z,2.92
2017-12-01T08:10:27.899Z,2.93
2017-12-01T08:11:27.872Z,3.00
2017-12-01T08:12:27.845Z,2.97
2017-12-01T08:13:27.822Z,2.93
2017-12-01T08:14:27.794Z,2.93
2017-12-01T08:15:27.770Z,3.08
2017-12-01T08:16:27.746Z,3.03
2017-12-01T08:17:27.719Z,3.11
2017-12-01T08:18:27.694Z,3.04
2017-12-01T08:19:27.666Z,3.07
2017-12-01T08:20:27.642Z,3.11
2017-12-01T08:21:27.615Z,3.16
2017-12-01T08:22:27.590Z,3.14
2017-12-01T08:23:27.564Z,3.10
2017-12-01T08:24:27.541Z,3.18
2017-12-01T08:25:27.512Z,3.13
2017-12-01T08:26:27.529Z,3.16
2017-12-01T08:27:27.510Z,3.11
2017-12-01T08:28:27.436Z,3.16
2017-12-01T08:29:27.410Z,3.16
2017-12-01T08:30:27.385Z,3.14
2017-12-01T08:31:27.360Z,3.07
2017-12-01T08:32:27.334Z,3.22
2017-12-01T08:33:27.308Z,3.23
2017-12-01T08:34:27.282Z,3.25
2017-12-01T08:35:27.258Z,3.14
2017-12-01T08:36:27.238Z,3.16
2017-12-01T08:37:27.209Z,3.19
2017-12-01T08:38:27.181Z,3.21
2017-12-01T08:39:27.154Z,3.16
2017-12-01T08:40:27.129Z,3.21
2017-12-01T08:41:27.103Z,3.18
2017-12-01T08:42:27.078Z,3.14
2017-12-01T08:43:27.054Z,3.26
2017-12-01T08:44:27.027Z,3.34
2017-12-01T08:45:27.011Z,3.28
2017-12-01T08:46:26.974Z,3.31
2017-12-01T08:47:26.949Z,3.29
2017-12-01T08:48:26.925Z,3.28
2017-12-01T08:49:26.898Z,3.37
2017-12-01T08:50:26.874Z,3.25
2017-12-01T08:51:26.848Z,3.26
2017-12-01T08:52:26.823Z,3.42
2017-12-01T08:53:26.797Z,3.37
2017-12-01T08:54:26.772Z,3.36
2017-12-01T08:55:26.747Z,3.37
2017-12-01T08:56:26.722Z,3.44
2017-12-01T08:57:26.694Z,3.42
2017-12-01T08:58:26.669Z,3.37
2017-12-01T08:59:26.645Z,3.47
2017-12-01T09:00:26.619Z,3.44
2017-12-01T09:01:26.593Z,3.48
2017-12-01T09:02:26.569Z,3.53
2017-12-01T09:03:26.543Z,3.45
2017-12-01T09:04:26.517Z,3.55
2017-12-01T09:05:26.493Z,3.55
2017-12-01T09:06:26.467Z,3.51
2017-12-01T09:07:26.441Z,3.56
2017-12-01T09:08:26.419Z,3.58
2017-12-01T09:09:26.391Z,3.51
2017-12-01T09:10:26.364Z,3.68
2017-12-01T09:11:26.341Z,3.68
2017-12-01T09:12:26.315Z,3.74
2017-12-01T09:13:26.289Z,3.69
2017-12-01T09:14:26.264Z,3.70
2017-12-01T09:15:26.240Z,3.73
2017-12-01T09:16:26.216Z,3.83
2017-12-01T09:17:26.188Z,3.81
2017-12-01T09:18:26.163Z,3.83
2017-12-01T09:19:26.138Z,3.86
2017-12-01T09:20:26.114Z,3.84
2017-12-01T09:21:26.087Z,3.87
2017-12-01T09:22:26.063Z,3.86
2017-12-01T09:23:26.038Z,3.86
2017-12-01T09:24:26.013Z,3.99
2017-12-01T09:25:25.988Z,3.94
2017-12-01T09:26:26.053Z,3.91
2017-12-01T09:27:25.938Z,4.02
2017-12-01T09:28:25.914Z,3.95
2017-12-01T09:29:25.887Z,3.92
2017-12-01T09:30:25.862Z,3.99
2017-12-01T09:31:25.838Z,3.98
2017-12-01T09:32:25.814Z,3.84
2017-12-01T09:33:25.788Z,3.91
2017-12-01T09:34:25.767Z,3.87
2017-12-01T09:35:25.738Z,3.92
2017-12-01T09:36:25.711Z,3.88
2017-12-01T09:37:25.689Z,3.83
2017-12-01T09:38:25.663Z,3.83
2017-12-01T09:39:25.639Z,3.98
2017-12-01T09:40:25.614Z,3.91
2017-12-01T09:41:25.589Z,3.91
2017-12-01T09:42:25.571Z,3.92
2017-12-01T09:43:25.539Z,4.01
2017-12-01T09:44:25.514Z,4.02
2017-12-01T09:45:25.488Z,4.06
2017-12-01T09:46:25.463Z,4.12
2017-12-01T09:47:25.438Z,4.14
2017-12-01T09:48:25.416Z,4.20
2017-12-01T09:49:25.390Z,4.22
2017-12-01T09:50:25.364Z,4.32
2017-12-01T09:51:25.345Z,4.37
2017-12-01T09:52:25.317Z,4.38
2017-12-01T09:53:25.291Z,4.37
2017-12-01T09:54:25.265Z,4.48
2017-12-01T09:55:25.242Z,4.56
2017-12-01T09:56:25.217Z,4.56
2017-12-01T09:57:25.191Z,4.55
2017-12-01T09:58:25.167Z,4.53
2017-12-01T09:59:25.142Z,4.59
2017-12-01T10:00:25.119Z,4.59
2017-12-01T10:01:25.094Z,4.52
2017-12-01T10:02:25.070Z,4.77
2017-12-01T10:03:25.045Z,4.73
2017-12-01T10:04:25.023Z,4.68
2017-12-01T10:05:24.997Z,4.75
2017-12-01T10:06:24.973Z,4.73
2017-12-01T10:07:24.950Z,4.70
2017-12-01T10:08:24.927Z,4.71
2017-12-01T10:09:24.901Z,4.67
2017-12-01T10:10:24.876Z,4.56
2017-12-01T10:11:24.854Z,4.59
2017-12-01T10:12:24.829Z,4.59
2017-12-01T10:13:24.804Z,4.55
2017-12-01T10:14:24.781Z,4.62
2017-12-01T10:15:24.756Z,4.56
2017-12-01T10:16:24.732Z,4.77
2017-12-01T10:17:24.708Z,4.67
2017-12-01T10:18:24.683Z,4.77
2017-12-01T10:19:24.659Z,4.68
2017-12-01T10:20:24.637Z,4.77
2017-12-01T10:21:24.612Z,4.78
2017-12-01T10:22:24.587Z,4.78
2017-12-01T10:23:24.564Z,4.87
2017-12-01T10:24:24.538Z,4.87
2017-12-01T10:25:24.518Z,4.80
2017-12-01T10:26:24.491Z,4.93
2017-12-01T10:27:24.466Z,4.92
2017-12-01T10:28:24.444Z,4.89
2017-12-01T10:29:24.419Z,4.89
2017-12-01T10:30:24.396Z,5.00
2017-12-01T10:31:24.373Z,4.97
2017-12-01T10:32:24.355Z,4.96
2017-12-01T10:33:24.325Z,5.14
2017-12-01T10:34:24.302Z,5.11
2017-12-01T10:35:24.278Z,5.12
2017-12-01T10:36:24.254Z,5.07
2017-12-01T10:37:24.230Z,5.17
2017-12-01T10:38:24.215Z,5.21
2017-12-01T10:39:24.182Z,5.14
2017-12-01T10:40:24.159Z,5.17
2017-12-01T10:41:24.134Z,5.17
2017-12-01T10:42:24.112Z,5.23
2017-12-01T10:43:24.088Z,5.15
2017-12-01T10:44:24.072Z,5.25
2017-12-01T10:45:24.041Z,5.15
2017-12-01T10:46:24.017Z,5.26
2017-12-01T10:47:23.993Z,5.18
2017-12-01T10:48:23.971Z,5.18
2017-12-01T10:49:23.946Z,5.29
2017-12-01T10:50:23.923Z,5.25
2017-12-01T10:51:23.899Z,5.25
2017-12-01T10:52:23.876Z,5.46
2017-12-01T10:53:23.852Z,5.62
2017-12-01T10:54:23.832Z,5.83
2017-12-01T10:55:23.805Z,5.99
2017-12-01T10:56:23.791Z,6.16
2017-12-01T10:57:23.761Z,6.36
2017-12-01T10:58:23.736Z,6.51
2017-12-01T10:59:23.714Z,6.75
2017-12-01T11:00:23.690Z,6.95
2017-12-01T11:01:23.668Z,7.10
2017-12-01T11:02:23.645Z,7.35
2017-12-01T11:03:23.623Z,7.31
2017-12-01T11:04:23.604Z,7.29
2017-12-01T11:05:23.580Z,7.32
2017-12-01T11:06:23.559Z,7.42
2017-12-01T11:07:23.536Z,7.53
2017-12-01T11:08:23.516Z,7.83
2017-12-01T11:09:23.494Z,8.09
2017-12-01T11:10:23.472Z,8.31
2017-12-01T11:11:23.451Z,8.70
2017-12-01T11:12:23.432Z,8.79
2017-12-01T11:13:23.414Z,9.08
2017-12-01T11:14:23.391Z,9.23
2017-12-01T11:15:23.373Z,9.46
2017-12-01T11:16:23.354Z,9.56
2017-12-01T11:17:23.332Z,9.74
2017-12-01T11:18:23.323Z,9.55
2017-12-01T11:19:23.336Z,9.40
2017-12-01T11:20:23.283Z,9.29
2017-12-01T11:21:23.265Z,9.04
2017-12-01T11:22:23.245Z,9.06
2017-12-01T11:23:23.229Z,8.82
2017-12-01T11:24:23.211Z,8.91
2017-12-01T11:25:23.194Z,8.99
2017-12-01T11:26:23.179Z,9.08
2017-12-01T11:27:23.160Z,9.21
2017-12-01T11:28:23.143Z,9.04
2017-12-01T11:29:23.127Z,8.87
2017-12-01T11:30:23.108Z,8.78
2017-12-01T11:31:23.096Z,8.64
2017-12-01T11:32:23.092Z,8.45
2017-12-01T11:33:23.057Z,8.34
2017-12-01T11:34:23.039Z,8.20
2017-12-01T11:35:23.024Z,8.05
2017-12-01T11:36:23.004Z,7.93
2017-12-01T11:37:22.992Z,7.66
2017-12-01T11:38:22.971Z,7.42
2017-12-01T11:39:22.954Z,7.33
2017-12-01T11:40:22.935Z,7.18
2017-12-01T11:41:22.915Z,7.14
2017-12-01T11:42:22.902Z,7.06
2017-12-01T11:43:22.878Z,7.02
2017-12-01T11:44:22.860Z,7.03
2017-12-01T11:45:22.839Z,6.92
2017-12-01T11:46:22.821Z,6.92
2017-12-01T11:47:22.802Z,7.00
2017-12-01T11:48:22.799Z,6.88
2017-12-01T11:49:22.764Z,6.92
2017-12-01T11:50:22.742Z,6.88
2017-12-01T11:51:22.724Z,6.95
2017-12-01T11:52:22.710Z,6.95
2017-12-01T11:53:22.683Z,7.03
2017-12-01T11:54:22.663Z,6.89
2017-12-01T11:55:22.641Z,6.96
2017-12-01T11:56:22.622Z,7.06
2017-12-01T11:57:22.602Z,7.07
2017-12-01T11:58:22.583Z,7.24
2017-12-01T11:59:22.561Z,7.31
2017-12-01T12:00:22.541Z,7.31
2017-12-01T12:01:22.520Z,7.32
2017-12-01T12:02:22.500Z,7.40
2017-12-01T12:03:22.480Z,7.54
2017-12-01T12:04:22.459Z,7.60
2017-12-01T12:05:22.439Z,7.98
2017-12-01T12:06:22.418Z,8.06
2017-12-01T12:07:22.398Z,8.08
2017-12-01T12:08:22.378Z,8.01
2017-12-01T12:09:22.357Z,7.93
2017-12-01T12:10:22.337Z,7.98
2017-12-01T12:11:22.317Z,7.87
2017-12-01T12:12:22.316Z,7.87
2017-12-01T12:13:22.277Z,7.70
2017-12-01T12:14:22.257Z,7.57
2017-12-01T12:15:22.238Z,7.47
2017-12-01T12:16:22.218Z,7.61
2017-12-01T12:17:22.229Z,7.50
2017-12-01T12:18:22.175Z,7.35
2017-12-01T12:19:22.154Z,7.33
2017-12-01T12:20:22.139Z,7.11
2017-12-01T12:21:22.115Z,7.11
2017-12-01T12:22:22.095Z,6.96
2017-12-01T12:23:22.076Z,6.92
2017-12-01T12:24:22.055Z,6.82
2017-12-01T12:25:22.033Z,6.82
2017-12-01T12:26:22.011Z,6.74
2017-12-01T12:27:21.991Z,6.72
2017-12-01T12:28:21.970Z,6.56
2017-12-01T12:29:21.949Z,6.52
2017-12-01T12:30:21.928Z,6.46
2017-12-01T12:31:21.906Z,6.33
2017-12-01T12:32:21.884Z,6.30
2017-12-01T12:33:21.865Z,6.26
2017-12-01T12:34:21.842Z,6.07
2017-12-01T12:35:21.819Z,6.01
2017-12-01T12:36:21.796Z,5.93
2017-12-01T12:37:21.776Z,5.84
2017-12-01T12:38:21.754Z,5.91
2017-12-01T12:39:21.732Z,5.90
2017-12-01T12:40:21.709Z,5.73
2017-12-01T12:41:21.685Z,5.79
2017-12-01T12:42:21.664Z,5.73
2017-12-01T12:43:21.641Z,5.59
2017-12-01T12:44:21.619Z,5.59
2017-12-01T12:45:21.593Z,5.65
2017-12-01T12:46:21.572Z,5.62
2017-12-01T12:47:21.552Z,5.62
2017-12-01T12:48:21.529Z,5.51
2017-12-01T12:49:21.505Z,5.48
2017-12-01T12:50:21.485Z,5.50
2017-12-01T12:51:21.454Z,5.41
2017-12-01T12:52:21.442Z,5.36
2017-12-01T12:53:21.411Z,5.43
2017-12-01T12:54:21.388Z,5.41
2017-12-01T12:55:21.365Z,5.20
2017-12-01T12:56:21.341Z,5.18
2017-12-01T12:57:21.319Z,5.25
2017-12-01T12:58:21.293Z,5.21
2017-12-01T12:59:21.271Z,5.08
2017-12-01T13:00:21.248Z,5.18
2017-12-01T13:01:21.224Z,5.17
2017-12-01T13:02:21.199Z,5.15
2017-12-01T13:03:21.176Z,5.07
2017-12-01T13:04:21.153Z,5.10
2017-12-01T13:05:21.128Z,5.05
2017-12-01T13:06:21.103Z,4.97
2017-12-01T13:07:21.079Z,5.07
2017-12-01T13:08:21.057Z,4.99
2017-12-01T13:09:21.031Z,5.00
2017-12-01T13:10:21.008Z,5.04
2017-12-01T13:11:20.984Z,4.97
2017-12-01T13:12:20.961Z,4.97
2017-12-01T13:13:20.935Z,4.90
2017-12-01T13:14:20.912Z,4.82
2017-12-01T13:15:20.888Z,4.89
2017-12-01T13:16:20.863Z,4.84
2017-12-01T13:17:20.841Z,4.80
2017-12-01T13:18:20.815Z,4.80